Time;durP1;ratioP1;P1;durP2;ratioP2;P2;SDS_P1;SDS_P2;PMS_P1;PMS_P2;Temp;Humidity;BMP_temperature;BMP_pressure;BME280_temperature;BME280_humidity;BME280_pressure;Samples;Min_cycle;Max_cycle;Signal;HPM_P1;HPM_P2
2021/06/19 00:02:06;;;;;;;8.30;3.35;;;22.60;79.40;;;;;;5055470;28;20702;-78
2021/06/19 00:04:32;;;;;;;6.88;3.08;;;22.60;79.40;;;;;;5053118;28;20020;-78
2021/06/19 00:06:58;;;;;;;6.13;2.72;;;22.60;78.70;;;;;;5057256;28;20023;-78
2021/06/19 00:09:24;;;;;;;8.77;3.42;;;22.60;79.80;;;;;;5043717;28;20106;-78
2021/06/19 00:11:50;;;;;;;8.38;3.08;;;22.50;80.40;;;;;;5068227;28;21057;-78
2021/06/19 00:14:15;;;;;;;8.32;3.33;;;22.50;79.30;;;;;;5071168;28;20508;-78
2021/06/19 00:16:41;;;;;;;5.47;2.50;;;22.50;79.10;;;;;;5074186;28;20032;-78
2021/06/19 00:19:07;;;;;;;6.45;2.60;;;22.50;79.80;;;;;;5044095;28;20032;-78
2021/06/19 00:21:32;;;;;;;6.78;3.10;;;22.50;80.00;;;;;;5070422;28;20060;-78
2021/06/19 00:23:58;;;;;;;8.15;2.90;;;22.50;79.00;;;;;;5053923;28;20020;-78
2021/06/19 00:26:23;;;;;;;6.47;2.72;;;22.40;80.00;;;;;;5052017;28;20020;-78
2021/06/19 00:28:49;;;;;;;10.43;3.03;;;22.30;80.40;;;;;;5051863;28;20048;-78
2021/06/19 00:31:15;;;;;;;3.95;2.58;;;22.30;80.30;;;;;;5069945;28;20029;-78
2021/06/19 00:33:41;;;;;;;5.13;2.97;;;22.10;81.20;;;;;;5042799;28;20120;-78
2021/06/19 00:36:06;;;;;;;6.85;2.83;;;22.10;81.70;;;;;;5050293;28;20032;-78
2021/06/19 00:38:32;;;;;;;5.20;2.95;;;22.00;81.80;;;;;;5038518;28;20101;-78
2021/06/19 00:40:58;;;;;;;4.03;2.53;;;21.90;82.60;;;;;;5058992;28;20114;-78
2021/06/19 00:43:23;;;;;;;5.80;2.38;;;22.10;82.60;;;;;;5068868;28;20836;-78
2021/06/19 00:45:49;;;;;;;5.03;2.90;;;21.90;82.60;;;;;;5069751;28;20028;-78
2021/06/19 00:48:14;;;;;;;5.07;2.65;;;21.80;83.30;;;;;;5071754;28;20625;-78
2021/06/19 00:50:40;;;;;;;5.75;2.75;;;22.00;81.50;;;;;;5077109;28;20035;-78
2021/06/19 00:53:07;;;;;;;4.82;2.67;;;22.00;82.00;;;;;;5047528;28;20031;-78
2021/06/19 00:55:33;;;;;;;5.55;2.78;;;22.10;81.60;;;;;;5063639;28;20043;-78
2021/06/19 00:58:00;;;;;;;4.70;2.95;;;22.10;80.70;;;;;;5052113;28;20026;-78
2021/06/19 01:00:26;;;;;;;7.38;3.63;;;22.10;80.80;;;;;;5040727;28;20031;-78
2021/06/19 01:02:55;;;;;;;5.68;3.35;;;22.00;80.60;;;;;;5044220;28;20351;-78
2021/06/19 01:05:21;;;;;;;9.55;3.22;;;21.90;82.00;;;;;;5061677;28;20566;-78
2021/06/19 01:07:47;;;;;;;8.65;3.65;;;22.10;78.50;;;;;;5057468;28;20021;-78
2021/06/19 01:10:13;;;;;;;8.18;3.72;;;22.10;78.80;;;;;;5075202;28;20614;-78
2021/06/19 01:12:42;;;;;;;8.82;3.55;;;22.20;78.70;;;;;;5072040;28;20151;-78
2021/06/19 01:15:08;;;;;;;9.57;4.43;;;22.10;78.20;;;;;;5043031;28;20028;-78
2021/06/19 01:17:34;;;;;;;8.68;4.45;;;22.20;77.70;;;;;;5056076;28;20048;-78
2021/06/19 01:20:11;;;;;;;8.77;4.97;;;22.10;77.40;;;;;;5054539;28;20036;-78
2021/06/19 01:22:38;;;;;;;5.45;4.10;;;22.10;77.60;;;;;;5041223;28;20050;-78
2021/06/19 01:25:05;;;;;;;9.48;4.07;;;22.10;78.10;;;;;;5039699;28;20518;-78
2021/06/19 01:27:31;;;;;;;5.85;3.03;;;22.00;77.40;;;;;;5060574;28;20044;-78
2021/06/19 01:29:57;;;;;;;7.55;3.08;;;22.10;76.40;;;;;;5042012;28;20071;-78
2021/06/19 01:32:27;;;;;;;5.82;2.30;;;22.00;76.90;;;;;;5057032;28;20027;-78
2021/06/19 01:34:53;;;;;;;6.93;2.13;;;22.00;76.80;;;;;;5057262;28;20027;-78
2021/06/19 01:37:19;;;;;;;4.43;1.88;;;21.90;75.90;;;;;;5055277;28;20029;-78
2021/06/19 01:39:44;;;;;;;3.90;2.00;;;21.90;76.50;;;;;;5053853;28;20032;-78
2021/06/19 01:42:10;;;;;;;3.33;1.90;;;21.90;76.20;;;;;;5070347;28;20020;-78
2021/06/19 01:44:36;;;;;;;3.22;1.88;;;21.90;75.70;;;;;;5042475;28;20763;-78
2021/06/19 01:47:01;;;;;;;2.28;1.70;;;21.90;76.10;;;;;;5064012;28;20046;-78
2021/06/19 01:49:34;;;;;;;5.68;1.92;;;21.80;77.00;;;;;;5076578;28;20050;-78
2021/06/19 01:52:00;;;;;;;2.15;1.42;;;21.70;76.40;;;;;;5046494;28;20721;-78
2021/06/19 01:54:26;;;;;;;2.22;1.60;;;21.70;76.80;;;;;;5043411;28;20089;-78
2021/06/19 01:56:51;;;;;;;3.85;1.70;;;21.60;76.70;;;;;;5072844;28;20024;-78
2021/06/19 01:59:17;;;;;;;4.18;1.60;;;21.60;76.70;;;;;;5073308;28;20101;-78
2021/06/19 02:01:43;;;;;;;1.95;1.67;;;21.60;76.70;;;;;;5076435;28;20588;-78
2021/06/19 02:04:09;;;;;;;11.98;1.70;;;21.50;77.30;;;;;;5072232;28;20026;-78
2021/06/19 02:06:34;;;;;;;2.70;1.33;;;21.40;77.80;;;;;;5056449;28;20031;-78
2021/06/19 02:09:05;;;;;;;3.58;1.30;;;21.40;77.50;;;;;;5059113;28;20477;-78
2021/06/19 02:11:30;;;;;;;4.57;1.23;;;21.40;77.90;;;;;;5063334;28;20042;-78
2021/06/19 02:13:56;;;;;;;3.25;1.38;;;21.30;78.30;;;;;;5059668;28;20028;-78
2021/06/19 02:16:22;;;;;;;3.13;1.35;;;21.30;78.20;;;;;;5082121;28;20047;-78
2021/06/19 02:18:47;;;;;;;3.63;1.58;;;21.20;78.90;;;;;;5073535;28;20996;-76
2021/06/19 02:21:13;;;;;;;3.47;1.58;;;21.10;79.20;;;;;;5067405;28;20092;-78
2021/06/19 02:23:38;;;;;;;3.60;1.48;;;21.10;79.30;;;;;;5090813;28;20040;-78
2021/06/19 02:26:04;;;;;;;6.43;1.60;;;21.10;79.20;;;;;;5088860;28;20027;-78
2021/06/19 02:28:30;;;;;;;5.65;1.60;;;21.10;79.40;;;;;;5078636;28;20457;-77
2021/06/19 02:30:58;;;;;;;3.47;1.42;;;21.10;79.00;;;;;;5044034;28;20028;-78
2021/06/19 02:33:24;;;;;;;4.95;1.85;;;21.10;79.50;;;;;;5073744;28;20020;-78
2021/06/19 02:35:50;;;;;;;3.13;1.75;;;21.20;79.40;;;;;;5056700;28;20051;-78
2021/06/19 02:38:15;;;;;;;7.35;2.45;;;21.20;79.20;;;;;;5048040;28;20028;-78
2021/06/19 02:40:42;;;;;;;4.60;2.03;;;21.30;78.70;;;;;;5067513;28;20121;-78
2021/06/19 02:43:08;;;;;;;5.35;2.25;;;21.30;78.70;;;;;;5061399;28;20043;-78
2021/06/19 02:45:34;;;;;;;4.40;2.70;;;21.20;79.40;;;;;;5065012;28;20100;-78
2021/06/19 02:47:59;;;;;;;6.25;2.50;;;21.30;79.00;;;;;;5067624;28;20842;-77
2021/06/19 02:50:27;;;;;;;3.97;1.95;;;21.30;78.90;;;;;;5040758;28;20669;-78
2021/06/19 02:52:53;;;;;;;3.13;2.13;;;21.30;79.10;;;;;;5044655;28;20028;-78
2021/06/19 02:55:21;;;;;;;8.70;2.67;;;21.20;79.90;;;;;;5053263;28;20070;-78
2021/06/19 02:57:47;;;;;;;6.90;2.75;;;21.10;79.50;;;;;;5043911;28;20056;-78
2021/06/19 03:00:14;;;;;;;5.53;3.90;;;21.00;80.50;;;;;;5039280;28;20066;-78
2021/06/19 03:02:41;;;;;;;10.98;4.65;;;21.00;80.50;;;;;;5074070;28;20094;-78
2021/06/19 03:05:08;;;;;;;12.35;4.20;;;21.00;80.70;;;;;;5038544;28;20132;-78
2021/06/19 03:07:33;;;;;;;4.53;3.20;;;21.00;81.40;;;;;;5053382;28;20020;-78
2021/06/19 03:09:59;;;;;;;6.45;2.28;;;21.00;80.10;;;;;;5075640;28;20677;-78
2021/06/19 03:12:26;;;;;;;8.63;2.13;;;21.00;79.70;;;;;;5038162;28;20117;-78
2021/06/19 03:14:52;;;;;;;2.25;1.50;;;21.00;79.10;;;;;;5040818;28;20503;-78
2021/06/19 03:17:20;;;;;;;2.45;1.83;;;21.00;79.00;;;;;;5043276;28;20119;-84
2021/06/19 03:19:45;;;;;;;4.38;1.70;;;21.00;79.60;;;;;;5050417;28;20519;-84
2021/06/19 03:22:11;;;;;;;3.90;1.35;;;20.90;79.20;;;;;;5030762;28;20036;-84
2021/06/19 03:24:40;;;;;;;1.20;1.10;;;21.00;78.90;;;;;;5056957;28;20021;-84
2021/06/19 03:27:07;;;;;;;4.55;1.42;;;21.00;79.20;;;;;;5060981;28;20084;-83
2021/06/19 03:29:33;;;;;;;1.30;1.20;;;20.90;78.40;;;;;;5056318;28;20108;-84
2021/06/19 03:31:59;;;;;;;4.05;1.30;;;21.00;78.40;;;;;;5025612;28;20040;-84
2021/06/19 03:34:25;;;;;;;2.05;1.30;;;20.80;79.30;;;;;;5058573;28;20031;-84
2021/06/19 03:36:58;;;;;;;5.85;1.35;;;20.90;80.10;;;;;;5041952;28;20029;-84
2021/06/19 03:39:24;;;;;;;2.97;1.30;;;20.80;80.30;;;;;;5045198;28;20027;-83
2021/06/19 03:41:49;;;;;;;2.10;1.30;;;20.90;78.60;;;;;;5057538;28;20016;-83
2021/06/19 03:44:15;;;;;;;2.17;1.70;;;20.90;79.50;;;;;;5061178;28;20603;-83
2021/06/19 03:46:41;;;;;;;5.30;1.55;;;20.80;80.00;;;;;;5042177;28;20051;-83
2021/06/19 03:49:06;;;;;;;3.15;1.70;;;20.80;80.00;;;;;;5056996;28;20056;-83
2021/06/19 03:51:32;;;;;;;7.82;1.98;;;20.80;80.30;;;;;;5040998;28;20036;-83
2021/06/19 03:53:58;;;;;;;4.88;2.05;;;20.80;80.40;;;;;;5064059;28;20031;-83
2021/06/19 03:56:23;;;;;;;3.63;2.10;;;20.90;79.60;;;;;;5056497;28;20612;-83
2021/06/19 03:58:49;;;;;;;5.28;1.80;;;20.90;80.00;;;;;;5054610;28;20040;-84
2021/06/19 04:01:15;;;;;;;3.90;1.95;;;20.80;79.90;;;;;;5062293;28;20109;-83
2021/06/19 04:03:40;;;;;;;2.35;1.70;;;20.70;81.20;;;;;;5043051;28;20024;-83
2021/06/19 04:06:06;;;;;;;5.78;1.80;;;20.60;80.60;;;;;;5072026;28;20453;-83
2021/06/19 04:08:32;;;;;;;3.22;1.85;;;20.70;82.30;;;;;;5028725;28;20020;-83
2021/06/19 04:10:57;;;;;;;2.78;2.10;;;20.70;82.10;;;;;;5041934;28;20024;-83
2021/06/19 04:13:24;;;;;;;3.40;1.70;;;20.70;81.90;;;;;;5056135;28;20046;-83
2021/06/19 04:15:49;;;;;;;2.55;1.85;;;20.70;82.80;;;;;;5061729;28;20131;-83
2021/06/19 04:18:15;;;;;;;3.88;1.90;;;20.60;82.70;;;;;;5057042;28;20087;-83
2021/06/19 04:20:41;;;;;;;5.82;1.90;;;20.60;85.40;;;;;;5019507;28;20028;-83
2021/06/19 04:23:07;;;;;;;3.88;2.20;;;20.40;85.20;;;;;;5056346;28;20671;-84
2021/06/19 04:25:32;;;;;;;7.85;2.38;;;20.50;84.20;;;;;;5046061;28;20055;-83
2021/06/19 04:27:58;;;;;;;2.88;2.33;;;20.60;82.30;;;;;;5058589;28;20102;-83
2021/06/19 04:30:25;;;;;;;4.20;2.10;;;20.70;83.50;;;;;;5047823;28;20760;-83
2021/06/19 04:32:52;;;;;;;2.22;1.90;;;20.80;83.00;;;;;;5031804;28;20069;-83
2021/06/19 04:35:17;;;;;;;6.20;2.08;;;20.80;81.40;;;;;;5056415;28;20036;-83
2021/06/19 04:37:43;;;;;;;3.83;2.00;;;21.00;80.30;;;;;;5063708;28;20099;-82
2021/06/19 04:42:59;;;;;;;3.55;1.80;;;21.30;79.70;;;;;;5051509;28;21432;-83
2021/06/19 04:45:25;;;;;;;2.10;1.52;;;22.00;76.30;;;;;;5043741;28;20031;-83
2021/06/19 04:47:50;;;;;;;2.97;1.35;;;23.30;72.30;;;;;;5060787;28;20016;-83
2021/06/19 04:50:16;;;;;;;7.05;1.70;;;24.70;66.70;;;;;;5042693;28;20032;-82
2021/06/19 04:52:43;;;;;;;3.22;1.67;;;25.60;63.90;;;;;;5028011;28;20067;-82
2021/06/19 04:55:10;;;;;;;3.80;1.55;;;26.40;60.40;;;;;;5046770;28;20110;-82
2021/06/19 04:57:36;;;;;;;4.38;1.60;;;27.20;59.50;;;;;;5045174;28;20059;-82
2021/06/19 05:00:02;;;;;;;2.03;1.60;;;27.30;58.60;;;;;;5028214;28;20120;-83
2021/06/19 05:02:28;;;;;;;4.95;1.50;;;27.70;56.80;;;;;;5043540;28;20031;-82
2021/06/19 05:04:53;;;;;;;3.00;1.48;;;27.80;56.20;;;;;;5048503;28;20024;-82
2021/06/19 05:07:19;;;;;;;1.65;1.08;;;27.70;56.90;;;;;;5028303;28;20385;-83
2021/06/19 05:09:44;;;;;;;1.88;0.88;;;28.20;55.50;;;;;;5043334;28;20764;-82
2021/06/19 05:12:11;;;;;;;2.38;1.10;;;28.40;54.60;;;;;;5041613;28;20025;-83
2021/06/19 05:14:36;;;;;;;3.28;1.00;;;28.20;55.30;;;;;;5025998;28;20043;-82
2021/06/19 05:17:02;;;;;;;1.92;0.95;;;28.20;56.10;;;;;;5058151;28;20024;-82
2021/06/19 05:19:28;;;;;;;3.38;1.00;;;28.40;54.70;;;;;;5032348;28;20431;-83
2021/06/19 05:21:54;;;;;;;1.40;0.88;;;28.30;54.60;;;;;;5043349;28;20581;-83
2021/06/19 05:24:19;;;;;;;1.40;1.17;;;28.60;54.50;;;;;;5048994;28;20024;-83
2021/06/19 05:26:45;;;;;;;1.88;1.27;;;29.10;53.30;;;;;;5048565;28;20526;-83
2021/06/19 05:29:10;;;;;;;3.72;1.35;;;29.30;52.50;;;;;;5062355;28;20067;-83
2021/06/19 05:31:36;;;;;;;3.72;1.00;;;29.40;53.70;;;;;;5058086;28;20036;-82
2021/06/19 05:34:02;;;;;;;2.20;1.42;;;28.70;53.00;;;;;;5040772;28;20039;-83
2021/06/19 05:36:27;;;;;;;2.17;1.10;;;28.30;55.70;;;;;;5033883;28;20106;-82
2021/06/19 05:38:53;;;;;;;1.10;1.00;;;27.80;56.10;;;;;;5041606;28;20059;-82
2021/06/19 05:41:19;;;;;;;1.70;0.80;;;28.60;55.00;;;;;;5046817;28;20513;-82
2021/06/19 05:43:44;;;;;;;0.70;0.60;;;28.90;54.80;;;;;;5078980;28;20033;-81
2021/06/19 05:46:10;;;;;;;2.03;0.90;;;28.70;53.50;;;;;;5063019;28;20028;-83
2021/06/19 05:48:36;;;;;;;2.72;0.90;;;28.70;54.70;;;;;;5078739;28;20871;-82
2021/06/19 05:51:01;;;;;;;2.08;0.82;;;28.70;54.50;;;;;;5048253;28;20296;-83
2021/06/19 05:53:27;;;;;;;2.33;1.08;;;29.10;54.70;;;;;;5049812;28;20566;-82
2021/06/19 05:55:53;;;;;;;2.83;0.90;;;28.40;54.50;;;;;;5047664;28;20032;-82
2021/06/19 05:58:19;;;;;;;2.47;0.85;;;28.70;55.20;;;;;;5079864;28;20107;-82
2021/06/19 06:00:45;;;;;;;2.88;0.80;;;29.10;53.50;;;;;;5052135;28;20078;-82
2021/06/19 06:03:10;;;;;;;1.90;1.17;;;29.60;52.90;;;;;;5050508;28;20024;-82
2021/06/19 06:05:36;;;;;;;1.58;1.00;;;29.30;53.00;;;;;;5069440;28;20097;-83
2021/06/19 06:08:08;;;;;;;3.03;0.93;;;29.10;53.90;;;;;;5063100;28;20020;-84
2021/06/19 06:10:35;;;;;;;1.65;1.20;;;28.70;54.20;;;;;;5078326;28;20384;-79
2021/06/19 06:13:01;;;;;;;1.13;0.95;;;28.50;56.20;;;;;;5061849;28;20368;-79
2021/06/19 06:15:27;;;;;;;3.50;1.02;;;29.70;53.90;;;;;;5049053;28;20028;-79
2021/06/19 06:17:53;;;;;;;2.33;1.02;;;29.70;53.30;;;;;;5063361;28;20028;-80
2021/06/19 06:20:18;;;;;;;1.63;0.90;;;30.20;51.90;;;;;;5076181;28;20027;-79
2021/06/19 06:22:44;;;;;;;1.73;1.10;;;30.30;51.20;;;;;;5045536;28;20172;-79
2021/06/19 06:25:10;;;;;;;4.93;0.98;;;29.90;52.40;;;;;;5065235;28;20025;-79
2021/06/19 06:27:36;;;;;;;2.10;1.05;;;29.30;54.00;;;;;;5048738;28;20220;-79
2021/06/19 06:30:03;;;;;;;3.47;1.10;;;29.40;53.10;;;;;;5045778;28;20120;-79
2021/06/19 06:32:29;;;;;;;3.45;1.30;;;29.20;53.50;;;;;;5055009;28;20024;-79
2021/06/19 06:34:55;;;;;;;2.85;1.42;;;29.80;53.50;;;;;;5072849;28;20035;-79
2021/06/19 06:37:21;;;;;;;1.77;0.85;;;30.00;53.70;;;;;;5059020;28;20025;-79
2021/06/19 06:39:46;;;;;;;3.72;1.08;;;29.70;54.00;;;;;;5059800;28;20031;-80
2021/06/19 06:42:12;;;;;;;2.95;0.90;;;29.20;53.50;;;;;;5064083;28;20474;-80
2021/06/19 06:44:38;;;;;;;3.38;0.93;;;29.30;54.20;;;;;;5047030;28;20460;-80
2021/06/19 06:47:05;;;;;;;2.55;1.13;;;29.30;53.00;;;;;;5071390;28;20027;-79
2021/06/19 06:49:31;;;;;;;4.78;1.20;;;29.00;54.80;;;;;;5075060;28;20032;-80
2021/06/19 06:51:57;;;;;;;4.55;1.20;;;29.40;55.30;;;;;;5045389;28;20040;-80
2021/06/19 06:54:22;;;;;;;1.55;0.90;;;30.00;54.00;;;;;;5057137;28;20035;-80
2021/06/19 06:56:48;;;;;;;4.05;1.55;;;29.30;52.90;;;;;;5055313;28;20060;-80
2021/06/19 06:59:13;;;;;;;2.42;1.10;;;30.40;52.20;;;;;;5071930;28;20025;-80
2021/06/19 07:01:39;;;;;;;3.60;0.82;;;30.30;53.70;;;;;;5073228;28;20016;-83
2021/06/19 07:04:05;;;;;;;1.60;1.00;;;29.80;51.40;;;;;;5069199;28;20050;-83
2021/06/19 07:06:32;;;;;;;3.25;0.93;;;29.80;52.40;;;;;;5045353;28;20017;-83
2021/06/19 07:08:57;;;;;;;2.83;1.20;;;30.40;52.00;;;;;;5056029;28;20115;-83
2021/06/19 07:11:23;;;;;;;3.13;1.20;;;30.50;52.30;;;;;;5040230;28;20709;-83
2021/06/19 07:13:49;;;;;;;2.90;1.17;;;29.70;53.80;;;;;;5056109;28;20133;-82
2021/06/19 07:16:15;;;;;;;3.88;1.50;;;29.30;55.00;;;;;;5043296;28;20034;-83
2021/06/19 07:18:40;;;;;;;1.52;1.00;;;29.60;54.10;;;;;;5060931;28;20100;-82
2021/06/19 07:21:07;;;;;;;3.88;0.90;;;29.00;53.40;;;;;;5062548;28;20028;-83
2021/06/19 07:23:33;;;;;;;3.55;1.10;;;29.20;54.40;;;;;;5050500;28;20039;-82
2021/06/19 07:25:59;;;;;;;3.65;0.90;;;29.60;53.40;;;;;;5057641;28;20029;-84
2021/06/19 07:28:26;;;;;;;3.03;0.90;;;30.40;51.20;;;;;;5028405;28;20122;-84
2021/06/19 07:30:55;;;;;;;4.53;1.05;;;29.90;52.40;;;;;;5071243;28;20053;-85
2021/06/19 07:33:21;;;;;;;2.92;0.95;;;29.30;52.00;;;;;;5073981;28;20036;-85
2021/06/19 07:35:46;;;;;;;1.60;0.98;;;29.20;53.00;;;;;;5023461;28;20029;-85
2021/06/19 07:38:12;;;;;;;2.65;0.90;;;29.40;51.90;;;;;;5041775;28;20077;-84
2021/06/19 07:40:38;;;;;;;4.00;1.02;;;29.30;52.10;;;;;;5042885;28;20028;-86
2021/06/19 07:43:04;;;;;;;3.17;1.00;;;29.40;53.10;;;;;;5039089;28;20024;-83
2021/06/19 07:45:29;;;;;;;4.25;1.23;;;29.50;52.00;;;;;;5042175;28;20357;-84
2021/06/19 07:47:55;;;;;;;5.70;0.90;;;29.40;53.20;;;;;;5075663;28;20095;-86
2021/06/19 07:50:20;;;;;;;2.78;1.00;;;29.40;53.00;;;;;;5057019;28;20122;-84
2021/06/19 07:52:46;;;;;;;1.25;0.75;;;29.50;53.10;;;;;;5041677;28;20048;-81
2021/06/19 07:55:12;;;;;;;5.63;1.17;;;29.00;53.60;;;;;;5075710;28;20056;-83
2021/06/19 07:57:38;;;;;;;2.65;0.80;;;29.10;55.20;;;;;;5046320;28;20032;-83
2021/06/19 08:00:04;;;;;;;2.33;1.05;;;29.10;52.50;;;;;;5050268;28;20463;-85
2021/06/19 08:02:30;;;;;;;2.35;1.17;;;29.80;52.00;;;;;;5028142;28;20020;-82
2021/06/19 08:04:56;;;;;;;1.80;0.93;;;29.60;51.50;;;;;;5034183;28;20373;-80
2021/06/19 08:07:21;;;;;;;2.58;0.88;;;29.50;54.80;;;;;;5063502;28;20043;-80
2021/06/19 08:09:47;;;;;;;2.53;1.00;;;29.70;51.30;;;;;;5060067;28;20115;-82
2021/06/19 08:12:13;;;;;;;1.40;0.63;;;29.90;51.10;;;;;;5060438;28;20040;-78
2021/06/19 08:14:38;;;;;;;1.33;0.93;;;29.50;53.60;;;;;;5046683;28;20036;-78
2021/06/19 08:17:14;;;;;;;1.80;0.82;;;29.50;52.20;;;;;;5079421;28;20093;-79
2021/06/19 08:19:39;;;;;;;1.63;0.90;;;29.20;51.40;;;;;;5064744;28;20033;-78
2021/06/19 08:22:06;;;;;;;1.92;1.15;;;29.10;54.00;;;;;;5046100;28;20031;-78
2021/06/19 08:24:32;;;;;;;5.55;0.95;;;28.80;54.00;;;;;;5048902;28;20513;-78
2021/06/19 08:26:59;;;;;;;5.03;1.63;;;28.90;55.90;;;;;;5044855;28;20127;-79
2021/06/19 08:29:24;;;;;;;2.70;1.20;;;28.80;55.10;;;;;;5052698;28;20070;-78
2021/06/19 08:31:51;;;;;;;5.03;1.38;;;28.90;55.80;;;;;;5072344;28;20032;-76
2021/06/19 08:34:17;;;;;;;6.18;0.82;;;28.90;54.50;;;;;;5065894;28;20044;-78
2021/06/19 08:36:43;;;;;;;1.23;0.93;;;28.40;55.80;;;;;;5079243;28;20028;-78
2021/06/19 08:39:09;;;;;;;4.07;0.90;;;28.60;56.50;;;;;;5064395;28;20627;-79
2021/06/19 08:41:35;;;;;;;5.13;1.10;;;28.70;56.90;;;;;;5060818;28;20103;-78
2021/06/19 08:44:01;;;;;;;4.13;1.38;;;28.80;55.20;;;;;;5064507;28;20031;-78
2021/06/19 08:46:27;;;;;;;4.30;1.52;;;28.40;55.10;;;;;;5066362;28;20028;-78
2021/06/19 08:48:57;;;;;;;3.97;1.60;;;28.50;57.00;;;;;;5058276;28;20024;-77
2021/06/19 08:51:23;;;;;;;6.20;1.20;;;28.70;56.60;;;;;;5076184;28;20051;-76
2021/06/19 08:53:52;;;;;;;6.72;1.52;;;28.50;57.10;;;;;;5062861;28;20398;-79
2021/06/19 08:56:18;;;;;;;3.03;0.80;;;28.80;54.10;;;;;;5063741;28;20039;-77
2021/06/19 08:58:45;;;;;;;3.58;1.10;;;29.10;53.00;;;;;;5059981;28;20036;-78
2021/06/19 09:01:11;;;;;;;6.88;1.00;;;29.20;56.20;;;;;;5064987;28;20028;-81
2021/06/19 09:03:38;;;;;;;2.28;1.15;;;29.10;55.50;;;;;;5054570;28;20032;-81
2021/06/19 09:06:28;;;;;;;2.40;1.30;;;29.20;54.50;;;;;;5030589;28;20604;-83
2021/06/19 09:09:09;;;;;;;4.63;1.25;;;29.40;55.40;;;;;;5069829;28;20035;-86
2021/06/19 09:12:01;;;;;;;4.43;1.27;;;29.10;52.80;;;;;;5044709;28;20121;-85
2021/06/19 09:14:28;;;;;;;4.35;1.30;;;29.40;55.40;;;;;;5071303;28;20033;-85
2021/06/19 09:17:22;;;;;;;3.42;1.27;;;29.50;54.30;;;;;;5059077;28;20036;-87
2021/06/19 09:19:51;;;;;;;2.97;1.30;;;29.20;54.60;;;;;;5075918;28;20447;-87
2021/06/19 09:22:22;;;;;;;4.85;1.13;;;28.80;53.00;;;;;;5078751;28;20027;-86
2021/06/19 09:24:55;;;;;;;5.03;1.35;;;29.50;56.20;;;;;;5072515;28;20099;-85
2021/06/19 09:27:36;;;;;;;6.05;1.15;;;29.60;55.70;;;;;;5043755;28;20128;-86
2021/06/19 09:30:08;;;;;;;4.07;1.25;;;29.60;53.60;;;;;;5074650;28;20024;-86
2021/06/19 09:32:34;;;;;;;6.53;1.25;;;30.00;52.60;;;;;;5090963;28;20012;-85
2021/06/19 09:35:30;;;;;;;4.20;1.40;;;30.00;52.20;;;;;;5058711;28;20039;-86
2021/06/19 09:38:08;;;;;;;5.50;1.50;;;29.90;53.50;;;;;;5057016;28;20131;-86
2021/06/19 09:40:34;;;;;;;4.60;1.60;;;30.00;50.60;;;;;;5055171;28;20123;-86
2021/06/19 09:43:21;;;;;;;5.63;1.67;;;29.60;49.90;;;;;;5067354;28;20555;-86
2021/06/19 09:46:05;;;;;;;5.03;1.40;;;29.70;49.30;;;;;;5083961;28;20027;-87
2021/06/19 09:48:35;;;;;;;4.82;1.17;;;29.80;51.60;;;;;;5072619;28;20035;-88
2021/06/19 09:51:21;;;;;;;3.13;1.30;;;29.70;52.40;;;;;;5073385;28;20024;-86
2021/06/19 09:54:03;;;;;;;5.32;1.55;;;29.90;55.50;;;;;;5058600;28;20468;-87
2021/06/19 09:56:56;;;;;;;7.03;1.38;;;29.50;55.10;;;;;;5055916;28;20064;-88
2021/06/19 09:59:26;;;;;;;7.18;1.85;;;29.70;54.60;;;;;;5056838;28;20040;-88
2021/06/19 10:01:54;;;;;;;4.85;1.60;;;29.70;53.30;;;;;;5074724;28;20054;-87
2021/06/19 10:04:22;;;;;;;7.32;1.40;;;29.80;51.30;;;;;;5086366;28;20028;-87
2021/06/19 10:06:50;;;;;;;2.95;1.20;;;29.80;54.70;;;;;;5053325;28;20067;-87
2021/06/19 10:09:16;;;;;;;2.05;1.30;;;29.70;54.30;;;;;;5054720;28;20032;-87
2021/06/19 10:11:45;;;;;;;4.00;1.55;;;29.70;54.10;;;;;;5068508;28;20532;-83
2021/06/19 10:14:16;;;;;;;4.07;1.48;;;29.20;55.70;;;;;;5066114;28;20025;-87
2021/06/19 10:16:53;;;;;;;5.25;1.52;;;29.50;54.40;;;;;;5066219;28;20106;-86
2021/06/19 10:19:22;;;;;;;5.47;1.60;;;30.20;52.90;;;;;;5046417;28;20031;-85
2021/06/19 10:21:50;;;;;;;3.17;1.20;;;30.80;51.80;;;;;;5052424;28;20024;-81
2021/06/19 10:24:17;;;;;;;4.95;1.77;;;30.30;50.80;;;;;;5069317;28;20024;-85
2021/06/19 10:26:43;;;;;;;2.88;1.70;;;30.20;52.90;;;;;;5068004;28;20028;-85
2021/06/19 10:29:09;;;;;;;5.22;1.90;;;30.10;52.10;;;;;;5043384;28;20065;-85
2021/06/19 10:31:46;;;;;;;4.38;1.77;;;30.50;51.50;;;;;;5067606;28;20032;-84
2021/06/19 10:34:25;;;;;;;6.65;1.80;;;30.30;52.10;;;;;;5067971;28;20031;-86
2021/06/19 10:36:56;;;;;;;1.63;1.50;;;30.60;52.80;;;;;;5067847;28;20027;-88
2021/06/19 10:39:37;;;;;;;4.70;2.53;;;30.70;51.10;;;;;;5073191;28;20050;-83
2021/06/19 10:42:05;;;;;;;2.53;1.30;;;31.00;51.90;;;;;;5081169;28;20588;-81
2021/06/19 10:45:13;;;;;;;3.58;1.60;;;30.80;52.10;;;;;;5078754;28;20028;-83
2021/06/19 10:48:04;;;;;;;4.93;2.05;;;30.90;48.90;;;;;;5092219;28;20046;-77
2021/06/19 10:50:30;;;;;;;3.65;1.50;;;31.00;52.40;;;;;;5062076;28;20024;-82
2021/06/19 10:53:14;;;;;;;3.50;1.80;;;30.60;53.20;;;;;;5076848;28;20028;-83
2021/06/19 10:55:42;;;;;;;5.03;1.90;;;30.50;49.50;;;;;;5077578;28;20373;-82
2021/06/19 10:58:27;;;;;;;2.60;1.60;;;30.50;53.20;;;;;;5075944;28;20284;-82
2021/06/19 11:00:59;;;;;;;5.28;2.03;;;30.30;52.00;;;;;;5078527;28;20513;-82
2021/06/19 11:03:41;;;;;;;4.25;2.10;;;29.90;49.90;;;;;;5079973;28;20017;-84
2021/06/19 11:06:26;;;;;;;3.30;1.60;;;30.00;50.30;;;;;;5076730;28;20028;-83
2021/06/19 11:09:17;;;;;;;7.30;4.07;;;30.40;51.10;;;;;;5059327;28;20031;-83
2021/06/19 11:11:54;;;;;;;4.07;2.28;;;30.70;57.20;;;;;;5073803;28;20020;-83
2021/06/19 11:14:42;;;;;;;5.70;2.13;;;30.70;54.30;;;;;;5059870;28;20020;-83
2021/06/19 11:17:09;;;;;;;3.30;1.85;;;31.10;54.00;;;;;;5079240;28;20017;-83
2021/06/19 11:19:47;;;;;;;4.07;1.80;;;31.30;49.60;;;;;;5058091;28;20476;-83
2021/06/19 11:22:40;;;;;;;2.50;1.70;;;31.10;48.00;;;;;;5076161;28;20074;-83
2021/06/19 11:25:50;;;;;;;5.40;1.92;;;31.00;52.60;;;;;;5058090;28;20016;-83
2021/06/19 11:28:21;;;;;;;5.55;2.10;;;31.00;50.60;;;;;;5084042;28;20077;-83
2021/06/19 11:30:48;;;;;;;15.95;2.70;;;30.80;47.90;;;;;;5076372;28;20035;-83
2021/06/19 11:33:26;;;;;;;4.25;1.95;;;31.30;52.40;;;;;;5060777;28;20062;-83
2021/06/19 11:36:22;;;;;;;5.38;2.13;;;31.40;47.70;;;;;;5083037;28;20115;-83
2021/06/19 11:38:56;;;;;;;4.90;1.52;;;31.30;47.40;;;;;;5041031;28;20694;-83
2021/06/19 11:41:33;;;;;;;1.80;1.67;;;31.40;50.60;;;;;;5076065;28;20032;-83
2021/06/19 11:43:58;;;;;;;3.47;1.92;;;31.00;49.40;;;;;;5058151;28;20391;-83
2021/06/19 11:46:25;;;;;;;4.35;1.52;;;31.20;48.50;;;;;;5058280;28;20020;-83
2021/06/19 11:48:58;;;;;;;3.20;1.83;;;31.20;48.80;;;;;;5061690;28;20047;-83
2021/06/19 11:51:25;;;;;;;1.45;1.35;;;30.90;46.90;;;;;;5051800;28;20032;-83
2021/06/19 11:53:52;;;;;;;8.02;2.00;;;30.70;52.40;;;;;;5059748;28;20025;-83
2021/06/19 11:56:25;;;;;;;4.50;1.77;;;30.20;50.10;;;;;;5037789;28;20021;-79
2021/06/19 11:59:01;;;;;;;4.97;2.08;;;29.80;53.50;;;;;;5058369;28;20109;-80
2021/06/19 12:01:31;;;;;;;17.50;2.88;;;29.80;52.40;;;;;;5057485;28;20016;-79
2021/06/19 12:04:03;;;;;;;3.75;1.50;;;29.90;52.00;;;;;;5045622;28;20643;-79
2021/06/19 12:06:30;;;;;;;5.20;1.73;;;30.20;50.30;;;;;;5074096;28;20570;-79
2021/06/19 12:08:55;;;;;;;4.43;1.88;;;30.90;50.30;;;;;;5056453;28;20358;-79
2021/06/19 12:11:26;;;;;;;5.20;1.80;;;31.40;52.10;;;;;;5027023;28;20061;-79
2021/06/19 12:13:51;;;;;;;4.65;1.75;;;31.10;49.10;;;;;;5057501;28;20134;-79
2021/06/19 12:16:17;;;;;;;4.05;1.92;;;31.00;51.50;;;;;;5073315;28;20028;-79
2021/06/19 12:18:47;;;;;;;5.35;2.80;;;30.90;49.00;;;;;;5071099;28;20036;-79
2021/06/19 12:21:14;;;;;;;5.13;1.30;;;31.20;52.80;;;;;;5043070;28;20118;-80
2021/06/19 12:23:41;;;;;;;3.03;1.58;;;31.80;50.20;;;;;;5068071;28;20496;-79
2021/06/19 12:26:10;;;;;;;11.23;2.20;;;31.60;51.10;;;;;;5071605;28;20122;-79
2021/06/19 12:28:36;;;;;;;5.10;1.73;;;31.50;50.20;;;;;;5041803;28;20036;-79
2021/06/19 12:31:02;;;;;;;1.77;1.25;;;31.20;49.10;;;;;;5026059;28;20035;-84
2021/06/19 12:33:29;;;;;;;3.92;1.45;;;31.00;46.50;;;;;;5076538;28;20038;-82
2021/06/19 12:35:55;;;;;;;2.45;1.63;;;31.20;53.00;;;;;;5050406;28;20123;-81
2021/06/19 12:38:21;;;;;;;3.85;1.67;;;31.80;50.50;;;;;;5054585;28;20406;-81
2021/06/19 12:41:09;;;;;;;2.65;1.88;;;31.60;51.60;;;;;;5071148;28;20036;-82
2021/06/19 12:43:48;;;;;;;8.52;2.08;;;31.00;50.80;;;;;;5080057;28;20068;-82
2021/06/19 12:46:21;;;;;;;8.93;2.50;;;30.90;48.70;;;;;;5056635;28;20027;-81
2021/06/19 12:48:47;;;;;;;24.95;6.00;;;30.80;52.00;;;;;;5057507;28;20675;-85
2021/06/19 12:51:29;;;;;;;5.72;1.90;;;30.70;52.40;;;;;;5079035;28;20028;-84
2021/06/19 12:54:26;;;;;;;16.65;3.65;;;30.70;51.70;;;;;;5080119;28;20021;-80
2021/06/19 12:56:56;;;;;;;12.27;3.20;;;30.90;51.30;;;;;;5066082;28;20081;-82